createdAt,value
2022-10-25T00:01:31.700Z,7.00
2022-10-25T00:03:59.982Z,5.20
2022-10-25T00:06:28.033Z,5.00
2022-10-25T00:08:56.048Z,4.80
2022-10-25T00:11:28.084Z,4.10
2022-10-25T00:13:58.865Z,4.20
2022-10-25T00:16:29.941Z,4.30
2022-10-25T00:18:58.010Z,4.70
2022-10-25T00:21:26.548Z,4.90
2022-10-25T00:23:54.597Z,5.60
2022-10-25T00:26:22.750Z,5.60
2022-10-25T00:28:54.501Z,7.30
2022-10-25T00:31:23.798Z,6.60
2022-10-25T00:33:52.132Z,7.20
2022-10-25T00:36:23.369Z,8.10
2022-10-25T00:38:51.818Z,8.10
2022-10-25T00:41:23.540Z,8.00
2022-10-25T00:43:54.513Z,9.10
2022-10-25T00:46:28.188Z,11.50
2022-10-25T00:49:12.912Z,11.50
2022-10-25T00:51:51.677Z,12.00
2022-10-25T00:54:29.376Z,14.50
2022-10-25T00:57:01.266Z,15.60
2022-10-25T00:59:29.671Z,18.70
2022-10-25T01:01:58.328Z,18.90
2022-10-25T01:04:29.009Z,21.60
2022-10-25T01:06:57.611Z,20.60
2022-10-25T01:09:28.769Z,21.50
2022-10-25T01:11:57.068Z,23.40
2022-10-25T01:14:27.047Z,22.40
2022-10-25T01:20:22.925Z,25.60
2022-10-25T01:23:40.543Z,25.30
2022-10-25T01:26:53.993Z,24.40
2022-10-25T01:29:49.301Z,22.50
2022-10-25T01:32:32.554Z,24.90
2022-10-25T01:35:09.478Z,22.60
2022-10-25T01:38:15.925Z,22.90
2022-10-25T01:41:00.210Z,24.80
2022-10-25T01:43:39.016Z,25.50
2022-10-25T01:46:26.178Z,24.20
2022-10-25T01:49:07.992Z,25.20
2022-10-25T01:51:37.098Z,23.80
2022-10-25T01:54:26.502Z,25.80
2022-10-25T01:57:12.710Z,27.30
2022-10-25T01:59:56.291Z,26.90
2022-10-25T02:03:03.546Z,25.10
2022-10-25T02:05:50.336Z,27.60
2022-10-25T02:08:18.388Z,26.30
2022-10-25T02:11:01.421Z,25.00
2022-10-25T02:13:52.388Z,22.50
2022-10-25T02:16:31.116Z,27.60
2022-10-25T02:19:05.662Z,28.70
2022-10-25T02:21:36.543Z,28.80
2022-10-25T02:24:13.867Z,29.60
2022-10-25T02:26:44.788Z,29.50
2022-10-25T02:29:14.744Z,30.30
2022-10-25T02:31:43.886Z,28.10
2022-10-25T02:34:12.085Z,32.20
2022-10-25T02:36:40.099Z,32.60
2022-10-25T02:39:08.840Z,32.30
2022-10-25T02:41:36.845Z,30.80
2022-10-25T02:44:04.893Z,32.70
2022-10-25T02:46:32.883Z,32.20
2022-10-25T02:49:00.818Z,32.50
2022-10-25T02:51:28.905Z,32.70
2022-10-25T02:53:57.012Z,34.80
2022-10-25T02:56:25.090Z,33.50
2022-10-25T02:58:56.762Z,33.40
2022-10-25T03:01:26.479Z,34.40
2022-10-25T03:03:54.805Z,33.00
2022-10-25T03:06:22.809Z,29.60
2022-10-25T03:08:50.777Z,33.40
2022-10-25T03:11:18.824Z,34.10
2022-10-25T03:13:46.907Z,35.60
2022-10-25T03:16:14.854Z,32.60
2022-10-25T03:18:42.799Z,32.50
2022-10-25T03:21:10.776Z,35.90
2022-10-25T03:23:38.734Z,32.80
2022-10-25T03:26:06.759Z,35.20
2022-10-25T03:28:34.843Z,34.30
2022-10-25T03:31:02.794Z,33.50
2022-10-25T03:36:04.053Z,31.80
2022-10-25T03:38:32.167Z,32.40
2022-10-25T03:41:00.170Z,30.20
2022-10-25T03:43:28.383Z,33.10
2022-10-25T03:45:56.836Z,14.30
2022-10-25T03:48:25.003Z,38.40
2022-10-25T03:50:54.365Z,37.80
2022-10-25T03:53:22.905Z,41.70
2022-10-25T03:55:50.964Z,42.40
2022-10-25T03:58:19.916Z,42.00
2022-10-25T04:00:48.320Z,40.70
2022-10-25T04:03:16.723Z,42.10
2022-10-25T04:05:44.772Z,41.30
2022-10-25T04:08:12.944Z,39.00
2022-10-25T04:10:41.007Z,40.00
2022-10-25T04:13:08.937Z,41.20
2022-10-25T04:15:38.806Z,38.30
2022-10-25T04:18:06.716Z,41.30
2022-10-25T04:20:34.748Z,38.20
2022-10-25T04:23:02.785Z,38.30
2022-10-25T04:25:30.787Z,36.50
2022-10-25T04:27:59.933Z,37.90
2022-10-25T04:30:28.091Z,34.20
2022-10-25T04:32:58.164Z,39.10
2022-10-25T04:35:26.069Z,37.70
2022-10-25T04:37:57.419Z,34.30
2022-10-25T04:40:25.543Z,35.40
2022-10-25T04:42:53.484Z,36.50
2022-10-25T04:45:21.370Z,38.10
2022-10-25T04:47:49.467Z,35.90
2022-10-25T04:50:17.536Z,38.40
2022-10-25T04:52:46.052Z,38.60
2022-10-25T04:55:14.279Z,37.80
2022-10-25T04:57:42.335Z,39.40
2022-10-25T05:00:11.160Z,38.50
2022-10-25T05:02:39.234Z,37.80
2022-10-25T05:05:07.609Z,39.90
2022-10-25T05:07:35.565Z,37.60
2022-10-25T05:10:04.080Z,39.00
2022-10-25T05:12:32.096Z,37.10
2022-10-25T05:15:00.000Z,38.60
2022-10-25T05:17:28.944Z,36.60
2022-10-25T05:19:56.889Z,39.80
2022-10-25T05:22:25.800Z,39.60
2022-10-25T05:24:54.367Z,37.70
2022-10-25T05:27:22.348Z,38.10
2022-10-25T05:29:50.274Z,40.20
2022-10-25T05:32:18.266Z,39.80
2022-10-25T05:34:46.247Z,38.10
2022-10-25T05:37:14.304Z,39.00
2022-10-25T05:39:42.217Z,39.30
2022-10-25T05:42:10.137Z,38.50
2022-10-25T05:44:38.347Z,34.90
2022-10-25T05:47:06.632Z,38.40
2022-10-25T05:49:39.646Z,37.30
2022-10-25T05:52:07.673Z,37.90
2022-10-25T05:54:35.851Z,38.50
2022-10-25T05:57:04.032Z,36.30
2022-10-25T05:59:32.023Z,36.80
2022-10-25T06:02:00.131Z,35.40
2022-10-25T06:04:28.299Z,36.20
2022-10-25T06:06:58.069Z,35.20
2022-10-25T06:09:26.117Z,36.00
2022-10-25T06:11:54.184Z,33.10
2022-10-25T06:14:22.098Z,31.80
2022-10-25T06:16:50.085Z,33.40
2022-10-25T06:19:18.007Z,31.30
2022-10-25T06:21:46.928Z,29.50
2022-10-25T06:24:15.017Z,30.70
2022-10-25T06:26:43.099Z,29.50
2022-10-25T06:29:11.128Z,29.00
2022-10-25T06:31:41.760Z,28.30
2022-10-25T06:34:09.814Z,25.30
2022-10-25T06:36:37.831Z,26.20
2022-10-25T06:39:08.746Z,24.10
2022-10-25T06:41:50.147Z,22.90
2022-10-25T06:44:26.561Z,23.40
2022-10-25T06:49:42.784Z,21.80
2022-10-25T06:52:10.847Z,22.40
2022-10-25T06:54:38.878Z,22.70
2022-10-25T06:57:06.902Z,21.40
2022-10-25T06:59:34.933Z,20.90
2022-10-25T07:02:03.107Z,21.00
2022-10-25T07:04:32.745Z,20.10
2022-10-25T07:07:01.502Z,20.90
2022-10-25T07:09:29.832Z,22.30
2022-10-25T07:11:57.899Z,22.40
2022-10-25T07:14:25.837Z,24.70
2022-10-25T07:16:53.839Z,22.20
2022-10-25T07:19:23.895Z,22.30
2022-10-25T07:21:51.924Z,22.90
2022-10-25T07:24:20.015Z,22.80
2022-10-25T07:26:48.135Z,20.00
2022-10-25T07:29:16.146Z,21.10
2022-10-25T07:31:44.529Z,20.40
2022-10-25T07:34:14.688Z,20.40
2022-10-25T07:36:43.092Z,20.10
2022-10-25T07:39:11.153Z,19.00
2022-10-25T07:41:39.116Z,19.70
2022-10-25T07:44:08.755Z,20.20
2022-10-25T07:46:38.712Z,20.80
2022-10-25T07:49:06.627Z,18.90
2022-10-25T07:51:34.640Z,17.70
2022-10-25T07:54:02.738Z,15.00
2022-10-25T07:56:30.818Z,15.00
2022-10-25T07:58:59.125Z,13.20
2022-10-25T08:01:28.689Z,13.50
2022-10-25T08:03:57.118Z,12.10
2022-10-25T08:06:26.384Z,11.60
2022-10-25T08:08:54.437Z,10.40
2022-10-25T08:11:22.506Z,11.00
2022-10-25T08:13:50.799Z,10.00
2022-10-25T08:16:19.216Z,9.10
2022-10-25T08:18:47.373Z,8.70
2022-10-25T08:21:16.355Z,8.90
2022-10-25T08:23:44.557Z,8.40
2022-10-25T08:26:12.708Z,7.90
2022-10-25T08:28:41.359Z,9.50
2022-10-25T08:31:10.452Z,9.30
2022-10-25T08:33:38.633Z,7.90
2022-10-25T08:36:07.027Z,7.70
2022-10-25T08:38:35.099Z,8.20
2022-10-25T08:41:07.273Z,7.80
2022-10-25T08:43:35.338Z,7.20
2022-10-25T08:46:16.234Z,6.90
2022-10-25T08:48:49.242Z,7.20
2022-10-25T08:51:33.938Z,6.90
2022-10-25T08:54:10.737Z,6.40
2022-10-25T08:56:46.667Z,6.50
2022-10-25T08:59:30.455Z,6.80
2022-10-25T09:02:00.269Z,6.60
2022-10-25T09:04:30.518Z,6.00
2022-10-25T09:07:27.264Z,6.80
2022-10-25T09:10:06.935Z,6.80
2022-10-25T09:13:36.558Z,6.60
2022-10-25T09:16:13.036Z,7.00
2022-10-25T09:18:46.206Z,8.00
2022-10-25T09:21:23.019Z,8.30
2022-10-25T09:24:01.666Z,8.30
2022-10-25T09:26:39.049Z,7.70
2022-10-25T09:29:22.350Z,8.60
2022-10-25T09:31:55.348Z,7.60
2022-10-25T09:34:24.979Z,6.90
2022-10-25T09:37:02.193Z,7.00
2022-10-25T09:39:41.762Z,5.70
2022-10-25T09:42:25.047Z,5.60
2022-10-25T09:45:02.049Z,4.80
2022-10-25T09:47:33.046Z,4.50
2022-10-25T09:50:32.212Z,5.60
2022-10-25T09:53:16.657Z,7.20
2022-10-25T09:55:57.321Z,8.20
2022-10-25T09:58:34.086Z,10.00
2022-10-25T10:01:09.122Z,9.60
2022-10-25T10:03:37.900Z,9.80
2022-10-25T10:06:18.832Z,7.90
2022-10-25T10:08:53.184Z,7.30
2022-10-25T10:11:21.625Z,8.10
2022-10-25T10:13:57.501Z,6.60
2022-10-25T10:19:19.732Z,7.60
2022-10-25T10:21:51.758Z,7.00
2022-10-25T10:24:20.901Z,7.60
2022-10-25T10:26:55.763Z,8.40
2022-10-25T10:29:28.717Z,7.90
2022-10-25T10:32:00.695Z,7.90
2022-10-25T10:34:34.635Z,8.90
2022-10-25T10:37:12.821Z,10.00
2022-10-25T10:40:07.144Z,8.80
2022-10-25T10:42:37.972Z,10.80
2022-10-25T10:45:08.060Z,13.50
2022-10-25T10:47:55.796Z,14.10
2022-10-25T10:50:24.538Z,14.50
2022-10-25T10:53:01.049Z,13.00
2022-10-25T10:55:34.712Z,14.20
2022-10-25T10:58:16.593Z,12.70
2022-10-25T11:01:29.684Z,9.80
2022-10-25T11:04:00.753Z,10.70
2022-10-25T11:06:34.246Z,12.60
2022-10-25T11:09:12.963Z,14.20
2022-10-25T11:11:41.380Z,12.90
2022-10-25T11:14:17.161Z,10.30
2022-10-25T11:17:28.502Z,8.40
2022-10-25T11:20:20.984Z,8.30
2022-10-25T11:22:54.894Z,8.70
2022-10-25T11:25:35.934Z,9.90
2022-10-25T11:28:22.438Z,12.30
2022-10-25T11:33:43.625Z,11.20
2022-10-25T11:36:49.212Z,11.30
2022-10-25T11:39:48.497Z,10.60
2022-10-25T11:43:02.565Z,10.40
2022-10-25T11:45:48.695Z,11.40
2022-10-25T11:48:35.721Z,9.30
2022-10-25T11:51:44.978Z,9.30
2022-10-25T11:54:19.005Z,9.70
2022-10-25T11:57:29.926Z,9.40
2022-10-25T12:00:24.368Z,10.80
2022-10-25T12:02:55.122Z,10.20
2022-10-25T12:05:28.840Z,10.60
2022-10-25T12:08:34.167Z,9.90
2022-10-25T12:11:13.732Z,9.30
2022-10-25T12:13:49.463Z,11.00
2022-10-25T12:16:20.230Z,9.10
2022-10-25T12:18:51.641Z,8.50
2022-10-25T12:21:28.121Z,8.80
2022-10-25T12:23:57.322Z,8.90
2022-10-25T12:26:36.158Z,9.60
2022-10-25T12:29:12.337Z,8.00
2022-10-25T12:31:52.282Z,6.90
2022-10-25T12:34:40.530Z,8.70
2022-10-25T12:37:19.669Z,7.90
2022-10-25T12:39:48.151Z,7.60
2022-10-25T12:42:26.053Z,7.70
2022-10-25T12:45:00.241Z,8.30
2022-10-25T12:47:43.341Z,8.60
2022-10-25T12:50:24.948Z,8.50
2022-10-25T12:53:30.241Z,8.20
2022-10-25T12:56:02.937Z,8.50
2022-10-25T12:58:45.966Z,8.00
2022-10-25T13:01:13.998Z,7.70
2022-10-25T13:04:00.249Z,7.60
2022-10-25T13:06:28.223Z,7.60
2022-10-25T13:09:04.353Z,7.40
2022-10-25T13:11:47.649Z,6.80
2022-10-25T13:14:24.894Z,7.20
2022-10-25T13:16:53.201Z,6.00
2022-10-25T13:19:30.658Z,5.90
2022-10-25T13:22:30.657Z,6.10
2022-10-25T13:25:24.306Z,5.60
2022-10-25T13:28:10.897Z,4.50
2022-10-25T13:30:40.397Z,5.70
2022-10-25T13:33:24.595Z,6.00
2022-10-25T13:35:53.114Z,6.80
2022-10-25T13:38:23.484Z,8.50
2022-10-25T13:41:10.366Z,8.30
2022-10-25T13:44:01.949Z,7.60
2022-10-25T13:46:41.462Z,4.70
2022-10-25T13:49:43.051Z,7.30
2022-10-25T13:52:57.855Z,8.70
2022-10-25T13:55:38.207Z,7.60
2022-10-25T13:58:31.295Z,8.00
2022-10-25T14:01:21.721Z,9.70
2022-10-25T14:03:53.277Z,8.40
2022-10-25T14:06:30.308Z,8.90
2022-10-25T14:09:13.242Z,7.70
2022-10-25T14:11:51.708Z,9.80
2022-10-25T14:14:29.907Z,7.90
2022-10-25T14:17:22.778Z,8.90
2022-10-25T14:19:57.758Z,9.40
2022-10-25T14:22:34.933Z,9.60
2022-10-25T14:25:14.382Z,10.40
2022-10-25T14:27:42.513Z,9.20
2022-10-25T14:30:24.370Z,8.30
2022-10-25T14:32:55.731Z,7.50
2022-10-25T14:35:33.959Z,7.60
2022-10-25T14:38:04.085Z,8.20
2022-10-25T14:40:32.388Z,7.80
2022-10-25T14:43:39.615Z,7.10
2022-10-25T14:46:10.503Z,6.90
2022-10-25T14:48:38.612Z,8.20
2022-10-25T14:51:13.718Z,7.80
2022-10-25T14:53:58.036Z,7.60
2022-10-25T14:56:28.472Z,8.60
2022-10-25T14:58:57.175Z,10.10
2022-10-25T15:01:26.052Z,12.20
2022-10-25T15:03:58.276Z,10.70
2022-10-25T15:06:29.985Z,8.80
2022-10-25T15:09:30.057Z,10.10
2022-10-25T15:12:10.178Z,9.70
2022-10-25T15:14:38.868Z,8.80
2022-10-25T15:17:21.742Z,10.00
2022-10-25T15:20:14.376Z,9.60
2022-10-25T15:22:47.627Z,8.80
2022-10-25T15:25:21.706Z,8.50
2022-10-25T15:27:52.657Z,8.00
2022-10-25T15:30:55.950Z,9.40
2022-10-25T15:33:32.262Z,8.80
2022-10-25T15:36:03.237Z,14.20
2022-10-25T15:38:54.349Z,12.90
2022-10-25T15:41:22.699Z,13.30
2022-10-25T15:43:52.160Z,12.90
2022-10-25T15:46:31.132Z,13.50
2022-10-25T15:49:01.113Z,13.80
2022-10-25T15:51:32.337Z,13.80
2022-10-25T15:54:00.482Z,15.10
2022-10-25T15:56:29.326Z,14.50
2022-10-25T15:59:00.379Z,14.30
2022-10-25T16:01:28.783Z,13.70
2022-10-25T16:03:56.892Z,13.50
2022-10-25T16:06:24.972Z,13.20
2022-10-25T16:08:53.397Z,14.10
2022-10-25T16:11:21.935Z,14.60
2022-10-25T16:13:53.240Z,14.40
2022-10-25T16:16:44.150Z,14.50
2022-10-25T16:19:26.484Z,14.90
2022-10-25T16:21:54.519Z,18.20
2022-10-25T16:24:22.803Z,14.80
2022-10-25T16:26:51.321Z,17.00
2022-10-25T16:29:21.919Z,16.20
2022-10-25T16:31:51.084Z,14.90
2022-10-25T16:34:19.898Z,13.50
2022-10-25T16:36:50.585Z,17.30
2022-10-25T16:39:18.680Z,18.50
2022-10-25T16:41:47.996Z,18.20
2022-10-25T16:44:19.765Z,14.90
2022-10-25T16:46:47.793Z,14.60
2022-10-25T16:49:16.101Z,18.60
2022-10-25T16:51:45.016Z,21.20
2022-10-25T16:54:15.589Z,21.20
2022-10-25T16:56:44.265Z,17.80
2022-10-25T16:59:12.723Z,17.40
2022-10-25T17:01:44.534Z,15.60
2022-10-25T17:04:15.027Z,16.00
2022-10-25T17:06:43.499Z,17.40
2022-10-25T17:09:12.144Z,16.90
2022-10-25T17:11:41.139Z,18.00
2022-10-25T17:14:09.953Z,19.70
2022-10-25T17:16:44.615Z,19.80
2022-10-25T17:19:14.447Z,21.90
2022-10-25T17:21:43.174Z,19.70
2022-10-25T17:24:11.594Z,20.30
2022-10-25T17:26:39.583Z,19.90
2022-10-25T17:29:08.010Z,20.80
2022-10-25T17:31:36.179Z,20.90
2022-10-25T17:34:04.314Z,25.70
2022-10-25T17:36:32.771Z,25.50
2022-10-25T17:39:00.952Z,25.80
2022-10-25T17:41:28.995Z,25.00
2022-10-25T17:43:57.917Z,23.70
2022-10-25T17:46:30.803Z,24.00
2022-10-25T17:49:06.915Z,22.10
2022-10-25T17:54:04.388Z,18.70
2022-10-25T17:56:32.568Z,18.90
2022-10-25T17:59:04.301Z,16.20
2022-10-25T18:01:35.833Z,17.70
2022-10-25T18:04:04.593Z,18.00
2022-10-25T18:06:32.682Z,18.30
2022-10-25T18:09:03.200Z,17.50
2022-10-25T18:11:31.633Z,18.20
2022-10-25T18:14:01.977Z,18.60
2022-10-25T18:16:31.550Z,17.80
2022-10-25T18:19:02.774Z,18.50
2022-10-25T18:21:32.048Z,16.70
2022-10-25T18:24:05.227Z,17.50
2022-10-25T18:26:35.359Z,17.60
2022-10-25T18:29:03.745Z,17.70
2022-10-25T18:31:31.841Z,18.80
2022-10-25T18:34:03.507Z,19.90
2022-10-25T18:36:31.814Z,19.30
2022-10-25T18:38:59.861Z,17.60
2022-10-25T18:41:31.177Z,16.00
2022-10-25T18:44:00.142Z,16.90
2022-10-25T18:46:30.935Z,16.50
2022-10-25T18:48:59.448Z,14.90
2022-10-25T18:51:32.316Z,14.70
2022-10-25T18:54:02.362Z,16.90
2022-10-25T18:56:32.686Z,17.80
2022-10-25T18:59:00.812Z,19.60
2022-10-25T19:01:32.809Z,23.10
2022-10-25T19:04:03.901Z,23.80
2022-10-25T19:06:32.800Z,25.50
2022-10-25T19:09:03.062Z,27.90
2022-10-25T19:11:33.029Z,30.50
2022-10-25T19:14:01.532Z,30.60
2022-10-25T19:16:29.951Z,33.80
2022-10-25T19:19:02.266Z,34.10
2022-10-25T19:21:30.349Z,35.60
2022-10-25T19:23:58.503Z,39.60
2022-10-25T19:26:27.136Z,42.10
2022-10-25T19:29:00.494Z,42.90
2022-10-25T19:31:29.171Z,37.90
2022-10-25T19:34:00.533Z,34.50
2022-10-25T19:36:29.763Z,32.00
2022-10-25T19:39:01.794Z,28.60
2022-10-25T19:41:29.984Z,26.20
2022-10-25T19:43:59.776Z,25.60
2022-10-25T19:46:28.028Z,28.00
2022-10-25T19:48:56.581Z,25.70
2022-10-25T19:51:24.597Z,25.70
2022-10-25T19:53:52.576Z,24.90
2022-10-25T19:56:22.288Z,26.50
2022-10-25T19:58:50.935Z,26.20
2022-10-25T20:01:24.420Z,26.20
2022-10-25T20:03:55.541Z,28.60
2022-10-25T20:06:27.022Z,31.30
2022-10-25T20:08:56.549Z,32.70
2022-10-25T20:11:27.996Z,30.10
2022-10-25T20:14:01.928Z,31.60
2022-10-25T20:16:31.609Z,30.40
2022-10-25T20:19:01.697Z,28.00
2022-10-25T20:21:34.155Z,27.90
2022-10-25T20:24:06.021Z,28.50
2022-10-25T20:26:36.419Z,29.60
2022-10-25T20:29:07.633Z,28.70
2022-10-25T20:31:35.621Z,29.70
2022-10-25T20:34:03.841Z,32.10
2022-10-25T20:36:32.203Z,28.90
2022-10-25T20:39:00.119Z,31.40
2022-10-25T20:41:30.102Z,29.10
2022-10-25T20:44:01.932Z,26.80
2022-10-25T20:46:30.746Z,30.70
2022-10-25T20:49:00.454Z,31.30
2022-10-25T20:51:28.536Z,29.90
2022-10-25T20:53:57.079Z,30.40
2022-10-25T20:56:25.074Z,29.40
2022-10-25T20:58:53.034Z,29.30
2022-10-25T21:01:21.222Z,33.30
2022-10-25T21:03:49.353Z,32.40
2022-10-25T21:06:17.411Z,33.90
2022-10-25T21:08:45.410Z,31.40
2022-10-25T21:11:14.221Z,34.10
2022-10-25T21:13:43.415Z,27.70
2022-10-25T21:16:13.737Z,32.40
2022-10-25T21:18:43.045Z,32.30
2022-10-25T21:21:18.101Z,30.20
2022-10-25T21:23:48.007Z,32.50
2022-10-25T21:26:16.349Z,31.10
2022-10-25T21:28:44.414Z,24.60
2022-10-25T21:31:15.168Z,33.20
2022-10-25T21:33:49.942Z,30.80
2022-10-25T21:36:20.695Z,35.80
2022-10-25T21:38:48.815Z,33.10
2022-10-25T21:41:20.984Z,34.70
2022-10-25T21:43:51.014Z,33.90
2022-10-25T21:46:21.350Z,33.50
2022-10-25T21:48:52.802Z,37.90
2022-10-25T21:51:24.496Z,38.50
2022-10-25T21:53:53.959Z,35.10
2022-10-25T21:56:31.217Z,33.50
2022-10-25T21:59:01.018Z,33.30
2022-10-25T22:01:30.448Z,37.00
2022-10-25T22:03:58.971Z,35.50
2022-10-25T22:06:27.638Z,38.50
2022-10-25T22:08:56.462Z,38.20
2022-10-25T22:11:27.616Z,42.10
2022-10-25T22:14:14.303Z,47.10
2022-10-25T22:16:42.415Z,45.10
2022-10-25T22:19:15.936Z,46.60
2022-10-25T22:21:45.119Z,47.10
2022-10-25T22:24:13.280Z,45.10
2022-10-25T22:26:43.813Z,45.40
2022-10-25T22:29:13.807Z,30.70
2022-10-25T22:31:42.053Z,41.80
2022-10-25T22:34:10.536Z,42.10
2022-10-25T22:36:41.111Z,39.80
2022-10-25T22:39:10.334Z,37.60
2022-10-25T22:41:38.724Z,40.30
2022-10-25T22:44:06.681Z,39.80
2022-10-25T22:46:36.034Z,38.40
2022-10-25T22:49:06.645Z,39.60
2022-10-25T22:51:35.867Z,40.10
2022-10-25T22:54:04.211Z,39.40
2022-10-25T22:56:32.520Z,38.70
2022-10-25T22:59:02.821Z,35.50
2022-10-25T23:01:34.171Z,41.10
2022-10-25T23:04:05.282Z,38.90
2022-10-25T23:06:36.220Z,39.70
2022-10-25T23:09:07.258Z,45.10
2022-10-25T23:11:36.871Z,43.90
2022-10-25T23:14:05.665Z,41.80
2022-10-25T23:16:33.634Z,43.50
2022-10-25T23:19:02.532Z,41.20
2022-10-25T23:21:31.135Z,41.80
2022-10-25T23:24:00.338Z,39.00
2022-10-25T23:26:32.241Z,40.60
2022-10-25T23:29:00.845Z,39.90
2022-10-25T23:31:30.438Z,39.90
2022-10-25T23:34:00.098Z,38.00
2022-10-25T23:36:37.484Z,37.10
2022-10-25T23:39:08.069Z,38.30
2022-10-25T23:41:36.582Z,38.10
2022-10-25T23:44:04.800Z,37.30
2022-10-25T23:46:32.755Z,35.10
2022-10-25T23:49:00.810Z,40.00
2022-10-25T23:51:28.834Z,39.50
2022-10-25T23:53:56.756Z,39.40
2022-10-25T23:56:24.747Z,40.80
2022-10-25T23:58:53.836Z,41.80
